createdAt,value
2018-04-23T00:00:31.177Z,5.00
2018-04-23T00:03:36.437Z,5.57
2018-04-23T00:06:41.733Z,4.60
2018-04-23T00:09:47.007Z,4.10
2018-04-23T00:12:52.026Z,5.00
2018-04-23T00:15:58.215Z,4.50
2018-04-23T00:19:04.413Z,4.90
2018-04-23T00:22:10.609Z,3.67
2018-04-23T00:25:16.890Z,3.77
2018-04-23T00:28:22.678Z,3.93
2018-04-23T00:31:28.902Z,3.80
2018-04-23T00:34:34.226Z,3.70
2018-04-23T00:37:39.524Z,3.57
2018-04-23T00:40:44.785Z,2.80
2018-04-23T00:43:50.984Z,3.50
2018-04-23T00:46:55.967Z,3.80
2018-04-23T00:50:02.175Z,3.57
2018-04-23T00:53:18.619Z,3.33
2018-04-23T00:56:24.337Z,3.27
2018-04-23T00:59:29.650Z,3.23
2018-04-23T01:02:35.732Z,2.70
2018-04-23T01:05:41.404Z,3.77
2018-04-23T01:08:47.270Z,3.07
2018-04-23T01:11:52.606Z,3.20
2018-04-23T01:14:58.701Z,2.73
2018-04-23T01:18:04.598Z,2.60
2018-04-23T01:21:10.690Z,2.90
2018-04-23T01:24:17.625Z,3.10
2018-04-23T01:27:23.500Z,3.20
2018-04-23T01:30:29.612Z,3.37
2018-04-23T01:33:34.887Z,3.27
2018-04-23T01:36:40.902Z,3.30
2018-04-23T01:39:46.897Z,3.20
2018-04-23T01:42:53.087Z,3.57
2018-04-23T01:45:58.964Z,3.63
2018-04-23T01:49:04.753Z,3.47
2018-04-23T01:52:09.499Z,4.53
2018-04-23T01:55:15.311Z,3.93
2018-04-23T01:58:21.481Z,4.40
2018-04-23T02:01:26.749Z,4.17
2018-04-23T02:04:34.105Z,3.90
2018-04-23T02:07:39.020Z,3.83
2018-04-23T02:10:44.651Z,4.37
2018-04-23T02:13:50.669Z,4.00
2018-04-23T02:16:56.484Z,4.40
2018-04-23T02:20:01.669Z,5.03
2018-04-23T02:23:07.476Z,5.00
2018-04-23T02:26:12.836Z,4.17
2018-04-23T02:29:18.964Z,4.70
2018-04-23T02:32:24.567Z,4.00
2018-04-23T02:35:29.776Z,4.70
2018-04-23T02:38:34.757Z,4.50
2018-04-23T02:41:40.736Z,3.90
2018-04-23T02:44:45.937Z,4.20
2018-04-23T02:47:51.667Z,3.93
2018-04-23T02:50:57.407Z,3.97
2018-04-23T02:54:02.756Z,3.80
2018-04-23T02:57:08.920Z,4.03
2018-04-23T03:00:14.129Z,4.03
2018-04-23T03:03:19.348Z,4.20
2018-04-23T03:06:24.651Z,4.07
2018-04-23T03:09:29.510Z,3.33
2018-04-23T03:12:35.144Z,3.73
2018-04-23T03:15:40.111Z,3.17
2018-04-23T03:18:46.212Z,3.13
2018-04-23T03:21:51.832Z,4.17
2018-04-23T03:24:57.855Z,3.60
2018-04-23T03:28:04.022Z,4.07
2018-04-23T03:31:09.608Z,4.17
2018-04-23T03:34:15.731Z,3.13
2018-04-23T03:37:21.892Z,3.50
2018-04-23T03:40:27.084Z,4.00
2018-04-23T03:43:33.195Z,3.70
2018-04-23T03:46:39.712Z,3.03
2018-04-23T03:49:45.308Z,3.77
2018-04-23T03:52:50.518Z,3.90
2018-04-23T03:55:56.539Z,4.23
2018-04-23T03:59:02.569Z,3.60
2018-04-23T04:02:08.471Z,4.20
2018-04-23T04:05:14.348Z,4.83
2018-04-23T04:08:19.536Z,4.77
2018-04-23T04:11:24.836Z,5.00
2018-04-23T04:14:41.572Z,4.97
2018-04-23T04:21:35.440Z,4.80
2018-04-23T04:24:41.301Z,5.37
2018-04-23T04:27:47.477Z,5.30
2018-04-23T04:30:53.259Z,6.97
2018-04-23T04:33:58.191Z,5.20
2018-04-23T04:37:03.381Z,5.80
2018-04-23T04:40:09.498Z,5.90
2018-04-23T04:43:15.148Z,6.60
2018-04-23T04:46:20.994Z,6.73
2018-04-23T04:49:26.648Z,5.97
2018-04-23T04:52:32.675Z,7.10
2018-04-23T04:55:38.788Z,6.93
2018-04-23T04:58:44.874Z,7.30
2018-04-23T05:01:50.804Z,7.03
2018-04-23T05:04:56.840Z,7.10
2018-04-23T05:08:02.996Z,7.60
2018-04-23T05:11:08.925Z,6.70
2018-04-23T05:14:14.942Z,7.50
2018-04-23T05:17:21.080Z,8.07
2018-04-23T05:20:26.344Z,7.97
2018-04-23T05:23:32.067Z,8.33
2018-04-23T05:26:38.034Z,8.23
2018-04-23T05:29:43.889Z,8.50
2018-04-23T05:32:49.992Z,9.63
2018-04-23T05:35:56.032Z,8.30
2018-04-23T05:39:02.083Z,9.93
2018-04-23T05:42:06.809Z,9.00
2018-04-23T05:45:12.473Z,10.83
2018-04-23T05:48:18.506Z,8.97
2018-04-23T05:51:24.631Z,8.90
2018-04-23T05:54:30.685Z,10.20
2018-04-23T05:57:35.899Z,10.20
2018-04-23T06:00:41.133Z,11.70
2018-04-23T06:03:47.256Z,10.10
2018-04-23T06:06:52.883Z,10.40
2018-04-23T06:09:59.029Z,10.70
2018-04-23T06:13:04.944Z,9.80
2018-04-23T06:16:10.760Z,11.33
2018-04-23T06:19:16.387Z,10.53
2018-04-23T06:22:21.634Z,10.90
2018-04-23T06:25:26.897Z,11.90
2018-04-23T06:28:32.283Z,12.60
2018-04-23T06:31:37.509Z,12.77
2018-04-23T06:34:42.721Z,12.40
2018-04-23T06:37:48.940Z,13.70
2018-04-23T06:40:54.777Z,12.07
2018-04-23T06:44:00.804Z,13.40
2018-04-23T06:47:06.859Z,14.87
2018-04-23T06:50:12.912Z,16.30
2018-04-23T06:53:18.303Z,15.73
2018-04-23T06:56:23.888Z,15.57
2018-04-23T06:59:28.593Z,14.73
2018-04-23T07:02:34.433Z,15.10
2018-04-23T07:05:40.405Z,17.20
2018-04-23T07:08:46.249Z,16.93
2018-04-23T07:11:52.389Z,16.77
2018-04-23T07:14:58.521Z,16.40
2018-04-23T07:18:03.748Z,16.30
2018-04-23T07:21:09.380Z,18.10
2018-04-23T07:24:14.601Z,17.63
2018-04-23T07:27:20.247Z,16.73
2018-04-23T07:30:26.329Z,16.43
2018-04-23T07:33:32.377Z,16.50
2018-04-23T07:36:38.300Z,18.00
2018-04-23T07:39:44.216Z,18.27
2018-04-23T07:42:50.132Z,17.57
2018-04-23T07:45:56.205Z,19.07
2018-04-23T07:49:02.145Z,19.20
2018-04-23T07:52:07.906Z,19.30
2018-04-23T07:55:14.048Z,19.47
2018-04-23T07:58:20.364Z,17.23
2018-04-23T08:01:26.405Z,19.20
2018-04-23T08:04:32.731Z,19.27
2018-04-23T08:07:38.552Z,19.30
2018-04-23T08:10:44.561Z,19.77
2018-04-23T08:13:49.775Z,20.23
2018-04-23T08:16:55.000Z,22.03
2018-04-23T08:20:00.273Z,20.17
2018-04-23T08:23:06.024Z,23.83
2018-04-23T08:26:12.172Z,23.80
2018-04-23T08:29:18.305Z,24.97
2018-04-23T08:32:24.332Z,23.73
2018-04-23T08:35:31.200Z,23.37
2018-04-23T08:38:37.013Z,22.13
2018-04-23T08:41:43.027Z,23.70
2018-04-23T08:44:48.881Z,23.10
2018-04-23T08:47:54.361Z,21.83
2018-04-23T08:51:00.489Z,20.73
2018-04-23T08:54:05.904Z,19.50
2018-04-23T08:57:11.144Z,20.00
2018-04-23T09:00:17.281Z,22.07
2018-04-23T09:03:23.444Z,21.80
2018-04-23T09:06:28.312Z,22.00
2018-04-23T09:09:34.140Z,19.80
2018-04-23T09:12:39.368Z,21.77
2018-04-23T09:15:44.580Z,22.60
2018-04-23T09:18:50.321Z,22.23
2018-04-23T09:21:56.120Z,21.37
2018-04-23T09:25:01.510Z,19.77
2018-04-23T09:28:06.533Z,20.33
2018-04-23T09:31:12.505Z,20.60
2018-04-23T09:34:18.867Z,20.80
2018-04-23T09:37:25.423Z,21.40
2018-04-23T09:40:30.630Z,21.90
2018-04-23T09:43:36.768Z,22.00
2018-04-23T09:46:41.992Z,23.97
2018-04-23T09:49:47.207Z,23.37
2018-04-23T09:52:52.431Z,24.90
2018-04-23T09:55:57.632Z,24.97
2018-04-23T09:59:03.580Z,23.90
2018-04-23T10:02:09.092Z,23.60
2018-04-23T10:05:15.045Z,25.13
2018-04-23T10:08:20.458Z,24.23
2018-04-23T10:11:25.672Z,23.77
2018-04-23T10:14:30.888Z,24.87
2018-04-23T10:17:36.103Z,25.53
2018-04-23T10:20:41.319Z,28.37
2018-04-23T10:23:47.474Z,27.20
2018-04-23T10:26:52.692Z,27.60
2018-04-23T10:29:58.617Z,25.80
2018-04-23T10:33:03.834Z,25.90
2018-04-23T10:36:09.054Z,22.87
2018-04-23T10:39:13.998Z,22.67
2018-04-23T10:42:19.377Z,22.17
2018-04-23T10:45:26.131Z,21.17
2018-04-23T10:48:32.387Z,18.90
2018-04-23T10:51:38.017Z,18.50
2018-04-23T10:54:44.055Z,18.40
2018-04-23T10:57:49.869Z,15.80
2018-04-23T11:00:55.076Z,13.83
2018-04-23T11:04:00.470Z,12.03
2018-04-23T11:07:05.401Z,11.33
2018-04-23T11:10:10.605Z,8.80
2018-04-23T11:13:15.794Z,8.17
2018-04-23T11:16:21.028Z,6.20
2018-04-23T11:19:27.126Z,4.83
2018-04-23T11:22:33.143Z,3.70
2018-04-23T11:25:39.144Z,4.13
2018-04-23T11:28:45.385Z,3.03
2018-04-23T11:31:52.321Z,4.07
2018-04-23T11:34:58.123Z,3.53
2018-04-23T11:38:04.060Z,3.73
2018-04-23T11:41:09.815Z,3.70
2018-04-23T11:44:15.004Z,3.00
2018-04-23T11:47:20.620Z,3.47
2018-04-23T11:50:26.768Z,3.20
2018-04-23T11:53:32.952Z,2.83
2018-04-23T11:56:38.972Z,3.00
2018-04-23T11:59:44.884Z,2.67
2018-04-23T12:02:50.656Z,2.40
2018-04-23T12:05:55.858Z,2.07
2018-04-23T12:09:01.074Z,1.90
2018-04-23T12:12:06.915Z,2.23
2018-04-23T12:15:12.112Z,2.70
2018-04-23T12:18:17.378Z,2.00
2018-04-23T12:21:23.317Z,3.10
2018-04-23T12:24:29.240Z,2.60
2018-04-23T12:27:35.375Z,2.50
2018-04-23T12:30:41.061Z,2.73
2018-04-23T12:33:46.936Z,2.80
2018-04-23T12:36:52.213Z,2.20
2018-04-23T12:39:57.829Z,2.40
2018-04-23T12:43:03.872Z,1.70
2018-04-23T12:46:09.951Z,2.23
2018-04-23T12:49:16.289Z,2.03
2018-04-23T12:52:22.105Z,1.40
2018-04-23T12:55:28.228Z,1.63
2018-04-23T12:58:33.604Z,1.40
2018-04-23T13:01:38.813Z,1.50
2018-04-23T13:04:44.014Z,1.57
2018-04-23T13:07:49.251Z,1.80
2018-04-23T13:10:54.477Z,1.27
2018-04-23T13:13:59.680Z,1.50
2018-04-23T13:17:05.792Z,1.30
2018-04-23T13:20:11.805Z,1.80
2018-04-23T13:23:17.812Z,1.43
2018-04-23T13:26:23.841Z,1.47
2018-04-23T13:29:29.963Z,1.77
2018-04-23T13:32:35.980Z,2.10
2018-04-23T13:35:42.020Z,1.70
2018-04-23T13:38:47.952Z,1.40
2018-04-23T13:41:53.907Z,1.90
2018-04-23T13:44:59.617Z,1.70
2018-04-23T13:48:05.768Z,1.97
2018-04-23T13:51:11.687Z,2.37
2018-04-23T13:54:17.713Z,2.80
2018-04-23T13:57:23.695Z,2.57
2018-04-23T14:00:29.732Z,2.87
2018-04-23T14:03:35.869Z,3.30
2018-04-23T14:06:41.893Z,3.90
2018-04-23T14:09:48.576Z,4.67
2018-04-23T14:12:55.117Z,4.83
2018-04-23T14:16:00.601Z,5.50
2018-04-23T14:19:06.209Z,4.83
2018-04-23T14:22:12.376Z,4.70
2018-04-23T14:25:17.572Z,5.20
2018-04-23T14:28:23.499Z,4.53
2018-04-23T14:31:28.705Z,5.03
2018-04-23T14:34:34.829Z,4.80
2018-04-23T14:37:40.518Z,4.87
2018-04-23T14:40:47.659Z,4.50
2018-04-23T14:43:53.143Z,4.03
2018-04-23T14:46:59.260Z,4.43
2018-04-23T14:50:04.524Z,3.53
2018-04-23T14:53:09.803Z,3.90
2018-04-23T14:56:15.156Z,3.47
2018-04-23T14:59:20.906Z,4.27
2018-04-23T15:02:27.106Z,3.80
2018-04-23T15:05:32.319Z,4.03
2018-04-23T15:08:37.507Z,3.13
2018-04-23T15:11:42.903Z,3.60
2018-04-23T15:14:48.551Z,3.30
2018-04-23T15:17:53.768Z,2.93
2018-04-23T15:21:00.108Z,3.60
2018-04-23T15:24:05.443Z,3.30
2018-04-23T15:27:10.604Z,4.07
2018-04-23T15:30:15.816Z,3.47
2018-04-23T15:33:21.969Z,3.73
2018-04-23T15:36:27.688Z,3.20
2018-04-23T15:39:33.714Z,3.30
2018-04-23T15:42:39.721Z,3.50
2018-04-23T15:45:45.557Z,3.23
2018-04-23T15:48:50.484Z,3.70
2018-04-23T15:51:55.677Z,4.37
2018-04-23T15:55:02.813Z,3.37
2018-04-23T15:58:08.627Z,3.27
2018-04-23T16:01:13.874Z,3.23
2018-04-23T16:04:19.116Z,2.87
2018-04-23T16:07:24.381Z,3.47
2018-04-23T16:10:29.608Z,2.63
2018-04-23T16:13:36.608Z,2.70
2018-04-23T16:16:41.954Z,3.00
2018-04-23T16:19:47.148Z,2.10
2018-04-23T16:22:53.265Z,2.27
2018-04-23T16:25:58.987Z,2.73
2018-04-23T16:29:05.316Z,2.27
2018-04-23T16:32:11.445Z,2.20
2018-04-23T16:35:16.884Z,2.00
2018-04-23T16:38:22.085Z,1.50
2018-04-23T16:41:28.204Z,1.70
2018-04-23T16:44:33.414Z,1.37
2018-04-23T16:47:38.640Z,1.40
2018-04-23T16:50:43.876Z,2.17
2018-04-23T16:53:49.106Z,1.27
2018-04-23T16:56:55.336Z,1.17
2018-04-23T17:00:01.307Z,1.17
2018-04-23T17:03:06.492Z,1.07
2018-04-23T17:06:11.772Z,0.90
2018-04-23T17:09:17.914Z,0.80
2018-04-23T17:12:23.204Z,0.90
2018-04-23T17:15:29.258Z,0.63
2018-04-23T17:18:35.455Z,0.97
2018-04-23T17:21:41.668Z,1.10
2018-04-23T17:24:46.576Z,1.27
2018-04-23T17:27:51.788Z,1.13
2018-04-23T17:30:57.516Z,1.20
2018-04-23T17:34:04.369Z,1.00
2018-04-23T17:37:09.272Z,1.03
2018-04-23T17:40:15.662Z,1.20
2018-04-23T17:43:21.084Z,0.90
2018-04-23T17:46:26.041Z,1.20
2018-04-23T17:49:32.152Z,1.43
2018-04-23T17:52:37.786Z,0.90
2018-04-23T17:55:42.755Z,0.70
2018-04-23T17:58:47.988Z,0.60
2018-04-23T18:01:53.359Z,0.80
2018-04-23T18:04:58.316Z,0.57
2018-04-23T18:08:04.280Z,0.60
2018-04-23T18:11:10.119Z,0.57
2018-04-23T18:14:15.957Z,0.77
2018-04-23T18:17:20.992Z,1.10
2018-04-23T18:20:25.932Z,1.40
2018-04-23T18:23:31.476Z,1.47
2018-04-23T18:26:37.455Z,0.93
2018-04-23T18:29:42.402Z,1.30
2018-04-23T18:32:47.293Z,1.50
2018-04-23T18:35:52.885Z,1.03
2018-04-23T18:38:57.808Z,1.10
2018-04-23T18:42:02.747Z,0.80
2018-04-23T18:45:08.178Z,1.00
2018-04-23T18:48:14.052Z,0.97
2018-04-23T18:51:19.027Z,0.90
2018-04-23T18:54:23.955Z,0.70
2018-04-23T18:57:29.960Z,0.60
2018-04-23T19:00:35.318Z,0.70
2018-04-23T19:03:41.157Z,1.17
2018-04-23T19:06:46.081Z,0.90
2018-04-23T19:09:51.670Z,0.90
2018-04-23T19:12:56.876Z,0.70
2018-04-23T19:16:02.837Z,1.07
2018-04-23T19:19:09.004Z,1.10
2018-04-23T19:22:14.481Z,0.93
2018-04-23T19:25:21.160Z,0.90
2018-04-23T19:28:27.024Z,1.33
2018-04-23T19:31:32.002Z,1.40
2018-04-23T19:34:37.857Z,0.70
2018-04-23T19:37:43.256Z,1.13
2018-04-23T19:40:49.360Z,1.40
2018-04-23T19:43:55.016Z,1.30
2018-04-23T19:47:00.923Z,1.63
2018-04-23T19:50:05.273Z,0.87
2018-04-23T19:53:11.179Z,1.03
2018-04-23T19:56:17.287Z,1.17
2018-04-23T19:59:22.212Z,1.13
2018-04-23T20:02:27.653Z,1.37
2018-04-23T20:05:32.560Z,1.60
2018-04-23T20:08:37.964Z,1.17
2018-04-23T20:11:43.771Z,1.90
2018-04-23T20:14:49.128Z,1.27
2018-04-23T20:17:53.721Z,1.73
2018-04-23T20:20:59.398Z,1.77
2018-04-23T20:24:05.301Z,1.57
2018-04-23T20:27:10.898Z,1.47
2018-04-23T20:30:16.735Z,1.60
2018-04-23T20:33:22.623Z,2.20
2018-04-23T20:36:28.606Z,1.27
2018-04-23T20:39:33.203Z,1.33
2018-04-23T20:42:38.628Z,2.10
2018-04-23T20:45:44.077Z,1.57
2018-04-23T20:48:49.000Z,1.40
2018-04-23T20:51:54.192Z,1.20
2018-04-23T20:54:59.559Z,1.57
2018-04-23T20:58:04.425Z,1.30
2018-04-23T21:01:09.221Z,1.60
2018-04-23T21:04:15.234Z,1.30
2018-04-23T21:07:20.857Z,1.30
2018-04-23T21:10:27.051Z,1.20
2018-04-23T21:13:32.584Z,1.60
2018-04-23T21:16:37.788Z,2.00
2018-04-23T21:19:44.155Z,1.10
2018-04-23T21:22:49.480Z,1.47
2018-04-23T21:25:55.440Z,1.60
2018-04-23T21:29:01.036Z,2.07
2018-04-23T21:32:06.951Z,2.10
2018-04-23T21:35:13.716Z,1.53
2018-04-23T21:38:19.803Z,1.97
2018-04-23T21:41:24.990Z,1.40
2018-04-23T21:44:30.392Z,1.67
2018-04-23T21:47:37.542Z,1.80
2018-04-23T21:50:42.489Z,1.97
2018-04-23T21:53:47.420Z,1.93
2018-04-23T21:56:52.996Z,2.07
2018-04-23T21:59:57.907Z,1.97
2018-04-23T22:03:03.356Z,2.37
2018-04-23T22:06:09.192Z,2.37
2018-04-23T22:09:15.084Z,2.57
2018-04-23T22:12:20.623Z,1.60
2018-04-23T22:15:25.536Z,2.60
2018-04-23T22:18:30.941Z,2.10
2018-04-23T22:21:36.547Z,2.23
2018-04-23T22:24:41.456Z,2.00
2018-04-23T22:27:46.381Z,1.87
2018-04-23T22:30:51.804Z,2.23
2018-04-23T22:33:56.752Z,2.13
2018-04-23T22:37:02.644Z,2.03
2018-04-23T22:40:07.627Z,2.80
2018-04-23T22:43:12.580Z,2.20
2018-04-23T22:46:17.762Z,2.20
2018-04-23T22:49:22.680Z,2.87
2018-04-23T22:52:27.876Z,2.03
2018-04-23T22:55:32.822Z,2.13
2018-04-23T22:58:37.740Z,2.03
2018-04-23T23:01:42.853Z,2.60
2018-04-23T23:04:48.754Z,2.53
2018-04-23T23:07:54.583Z,2.10
2018-04-23T23:10:59.772Z,2.23
2018-04-23T23:14:05.215Z,2.40
2018-04-23T23:17:10.844Z,2.00
2018-04-23T23:20:16.875Z,2.03
2018-04-23T23:23:22.716Z,2.20
2018-04-23T23:26:28.326Z,2.40
2018-04-23T23:29:33.521Z,1.90
2018-04-23T23:32:38.744Z,2.43
2018-04-23T23:35:45.536Z,2.90
2018-04-23T23:38:50.905Z,2.80
2018-04-23T23:41:57.008Z,2.27
2018-04-23T23:45:02.653Z,2.33
2018-04-23T23:48:08.540Z,2.67
2018-04-23T23:51:13.745Z,2.47
2018-04-23T23:54:18.993Z,3.00
2018-04-23T23:57:24.173Z,2.70
